Time;durP1;ratioP1;P1;durP2;ratioP2;P2;SDS_P1;SDS_P2;PMS_P1;PMS_P2;Temp;Humidity;BMP_temperature;BMP_pressure;BME280_temperature;BME280_humidity;BME280_pressure;Samples;Min_cycle;Max_cycle;Signal;HPM_P1;HPM_P2
2023/02/14 00:03:01;;;;;;;0.00;0.00;;;;;;;-145.06;100.00;53896.44;10316113;28;20030;-82
2023/02/14 00:08:01;;;;;;;0.00;0.00;;;;;;;-145.06;100.00;53892.38;10333577;28;20278;-82
2023/02/14 00:13:01;;;;;;;0.00;0.00;;;;;;;-145.06;100.00;53855.94;10314388;28;20030;-82
2023/02/14 00:18:02;;;;;;;0.00;0.00;;;;;;;-145.06;100.00;53843.78;10317233;28;20482;-82
2023/02/14 00:23:02;;;;;;;0.00;0.00;;;;;;;-145.06;100.00;53868.09;10332550;28;20037;-82
2023/02/14 00:28:03;;;;;;;0.00;0.00;;;;;;;-145.06;100.00;53849.84;10332878;28;20047;-82
2023/02/14 00:33:03;;;;;;;0.00;0.00;;;;;;;-145.06;100.00;53896.44;10334514;28;20039;-82
2023/02/14 00:38:04;;;;;;;0.00;0.00;;;;;;;-145.06;100.00;53827.59;10310688;28;20061;-82
2023/02/14 00:43:04;;;;;;;0.00;0.00;;;;;;;-145.06;100.00;53876.19;10314515;28;20038;-82
2023/02/14 00:48:04;;;;;;;0.00;0.00;;;;;;;-145.06;100.00;53912.63;10330109;28;20045;-83
2023/02/14 00:53:05;;;;;;;0.00;0.00;;;;;;;-145.06;100.00;53900.50;10316002;28;20053;-82
2023/02/14 00:58:05;;;;;;;0.00;0.00;;;;;;;-145.06;100.00;53896.44;10339710;28;20061;-83
2023/02/14 01:03:06;;;;;;;0.00;0.00;;;;;;;-145.06;100.00;53849.84;10318785;28;20050;-82
2023/02/14 01:08:06;;;;;;;0.00;0.00;;;;;;;-145.06;100.00;53870.09;10341054;28;20065;-82
2023/02/14 01:13:06;;;;;;;0.00;0.00;;;;;;;-145.06;100.00;53862.00;10323966;28;20077;-82
2023/02/14 01:18:07;;;;;;;0.00;0.00;;;;;;;-145.06;100.00;53849.84;10317718;28;20549;-82
2023/02/14 01:23:08;;;;;;;0.00;0.00;;;;;;;-145.06;100.00;53815.44;10341372;28;20788;-81
2023/02/14 01:28:08;;;;;;;0.00;0.00;;;;;;;-145.06;100.00;53829.59;10322153;28;20409;-81
2023/02/14 01:33:08;;;;;;;0.00;0.00;;;;;;;-145.06;100.00;53890.38;10332755;28;20030;-81
2023/02/14 01:38:08;;;;;;;0.00;0.00;;;;;;;-145.06;100.00;53882.25;10321516;28;20498;-82
2023/02/14 01:43:15;;;;;;;0.00;0.00;;;;;;;-145.06;100.00;53851.88;10340317;28;20361;-82
2023/02/14 01:48:17;;;;;;;0.00;0.00;;;;;;;-145.06;100.00;53821.50;10321090;28;20038;-82
2023/02/14 01:53:28;;;;;;;0.00;0.00;;;;;;;-145.06;100.00;53874.16;10321961;28;20121;-83
2023/02/14 01:58:33;;;;;;;0.00;0.00;;;;;;;-145.06;100.00;53847.84;10317192;28;20031;-83
2023/02/14 02:03:40;;;;;;;0.00;0.00;;;;;;;-145.06;100.00;53864.03;10334812;28;20101;-83
2023/02/14 02:08:49;;;;;;;0.00;0.00;;;;;;;-145.06;100.00;53855.94;10319477;28;20046;-83
2023/02/14 02:13:49;;;;;;;0.00;0.00;;;;;;;-145.06;100.00;53866.06;10313408;28;20556;-83
2023/02/14 02:19:05;;;;;;;0.00;0.00;;;;;;;-145.06;100.00;53880.22;10319042;28;20133;-83
2023/02/14 02:24:14;;;;;;;0.00;0.00;;;;;;;-145.06;100.00;53813.41;10320646;28;20096;-83
2023/02/14 02:29:50;;;;;;;0.00;0.00;;;;;;;-145.06;100.00;53866.06;10339926;23;20471;-82
2023/02/14 02:35:18;;;;;;;0.00;0.00;;;;;;;-145.06;100.00;53918.72;10285664;28;20064;-83
2023/02/14 02:40:37;;;;;;;0.00;0.00;;;;;;;-145.06;100.00;53862.00;10305125;28;20105;-82
2023/02/14 02:56:52;;;;;;;0.00;0.00;;;;;;;-145.06;100.00;53827.59;10308133;28;20026;-82
2023/02/14 03:01:58;;;;;;;0.00;0.00;;;;;;;-145.06;100.00;53888.34;10299397;28;20042;-82
2023/02/14 03:06:59;;;;;;;0.20;0.20;;;;;;;-145.06;100.00;53874.16;10293396;28;20043;-82
2023/02/14 03:12:10;;;;;;;0.00;0.00;;;;;;;-145.06;100.00;53880.22;10285656;28;20027;-82
2023/02/14 03:17:20;;;;;;;0.00;0.00;;;;;;;-145.06;100.00;53898.47;10309723;28;20034;-82
2023/02/14 03:22:40;;;;;;;0.00;0.00;;;;;;;-145.06;100.00;53870.09;10303101;28;20048;-81
2023/02/14 03:27:47;;;;;;;0.00;0.00;;;;;;;-145.06;100.00;53866.06;10282366;28;20142;-82
2023/02/14 03:33:18;;;;;;;0.00;0.00;;;;;;;-145.06;100.00;53821.50;10292628;28;20046;-82
2023/02/14 03:38:26;;;;;;;0.00;0.00;;;;;;;-145.06;100.00;53876.19;10289642;28;20035;-82
2023/02/14 03:43:34;;;;;;;0.00;0.00;;;;;;;-145.06;100.00;53849.84;10295243;28;20092;-81
2023/02/14 03:48:36;;;;;;;0.00;0.00;;;;;;;-145.06;100.00;53847.84;10285868;28;20050;-81
2023/02/14 03:53:41;;;;;;;0.00;0.00;;;;;;;-145.06;100.00;53880.22;10285420;28;20474;-81
2023/02/14 03:58:43;;;;;;;;;;;;;;;-145.06;100.00;53886.31;10285950;28;20552;-81
2023/02/14 04:03:44;;;;;;;0.00;0.00;;;;;;;-145.06;100.00;53833.66;10305407;28;19910;-81
2023/02/14 04:08:45;;;;;;;0.00;0.00;;;;;;;-145.06;100.00;53900.50;10302397;28;20498;-81
2023/02/14 04:13:45;;;;;;;0.00;0.00;;;;;;;-145.06;100.00;53843.78;10301242;28;20114;-81
2023/02/14 04:24:05;;;;;;;0.00;0.00;;;;;;;-145.06;100.00;53862.00;10299069;28;20018;-82
2023/02/14 04:29:05;;;;;;;0.00;0.00;;;;;;;-145.06;100.00;53870.09;10287624;28;20050;-81
2023/02/14 04:34:05;;;;;;;0.00;0.00;;;;;;;-145.06;100.00;53859.97;10283799;28;20130;-82
2023/02/14 04:39:05;;;;;;;0.00;0.00;;;;;;;-145.06;100.00;53825.56;10307602;28;20035;-81
2023/02/14 04:44:06;;;;;;;0.00;0.00;;;;;;;-145.06;100.00;53882.25;10301452;28;20022;-82
2023/02/14 04:49:06;;;;;;;0.00;0.00;;;;;;;-145.06;100.00;53900.50;10321611;28;20077;-81
2023/02/14 04:54:07;;;;;;;0.00;0.00;;;;;;;-145.06;100.00;53847.84;10303560;28;20030;-81
2023/02/14 04:59:07;;;;;;;0.00;0.00;;;;;;;-145.06;100.00;53892.38;10297729;28;20352;-80
2023/02/14 05:04:08;;;;;;;0.00;0.00;;;;;;;-145.06;100.00;53868.09;10274874;28;20027;-81
2023/02/14 05:09:08;;;;;;;0.00;0.00;;;;;;;-145.06;100.00;53890.38;10308545;28;20030;-80
2023/02/14 05:14:09;;;;;;;0.00;0.00;;;;;;;-145.06;100.00;53851.88;10314838;28;20026;-80
2023/02/14 05:19:09;;;;;;;0.00;0.00;;;;;;;-145.06;100.00;53857.97;10317244;28;20508;-80
2023/02/14 05:24:09;;;;;;;0.00;0.00;;;;;;;-145.06;100.00;53880.22;10306481;28;20045;-81
2023/02/14 05:29:10;;;;;;;0.00;0.00;;;;;;;-145.06;100.00;53864.03;10313308;28;20354;-81
2023/02/14 05:34:10;;;;;;;0.00;0.00;;;;;;;-145.06;100.00;53880.22;10309223;28;20266;-81
2023/02/14 05:39:13;;;;;;;0.00;0.00;;;;;;;-145.06;100.00;53884.28;10298604;28;20712;-82
2023/02/14 05:44:13;;;;;;;0.00;0.00;;;;;;;-145.06;100.00;53876.19;10312386;28;20480;-81
2023/02/14 05:49:13;;;;;;;0.00;0.00;;;;;;;-145.06;100.00;53900.50;10296155;28;20130;-81
2023/02/14 05:54:14;;;;;;;0.00;0.00;;;;;;;-145.06;100.00;53859.97;10297394;28;20026;-81
2023/02/14 05:59:14;;;;;;;0.00;0.00;;;;;;;-145.06;100.00;53866.06;10284177;28;20031;-81
2023/02/14 06:04:14;;;;;;;0.00;0.00;;;;;;;-145.06;100.00;53892.38;10305485;28;20035;-81
2023/02/14 06:09:15;;;;;;;0.00;0.00;;;;;;;-145.06;100.00;53872.13;10294449;28;20314;-82
2023/02/14 06:14:15;;;;;;;0.00;0.00;;;;;;;-145.06;100.00;53859.97;10291367;28;20529;-80
2023/02/14 06:19:15;;;;;;;0.00;0.00;;;;;;;-145.06;100.00;53851.88;10308060;28;20089;-80
2023/02/14 06:24:16;;;;;;;0.00;0.00;;;;;;;-145.06;100.00;53884.28;10307837;28;20374;-80
2023/02/14 06:29:16;;;;;;;0.00;0.00;;;;;;;-145.06;100.00;53864.03;10310221;28;20185;-80
2023/02/14 06:34:17;;;;;;;0.00;0.00;;;;;;;-145.06;100.00;53890.38;10314645;28;20106;-81
2023/02/14 06:39:17;;;;;;;0.00;0.00;;;;;;;-145.06;100.00;53900.50;10302522;28;20469;-80
2023/02/14 06:44:18;;;;;;;0.00;0.00;;;;;;;-145.06;100.00;53843.78;10306635;28;20025;-81
2023/02/14 06:49:18;;;;;;;0.00;0.00;;;;;;;-145.06;100.00;53880.22;10304657;28;20136;-81
2023/02/14 06:54:18;;;;;;;0.00;0.00;;;;;;;-145.06;100.00;53857.97;10304283;28;20034;-80
2023/02/14 06:59:19;;;;;;;0.00;0.00;;;;;;;-145.06;100.00;53866.06;10306408;28;20026;-81
2023/02/14 07:04:19;;;;;;;0.00;0.00;;;;;;;-145.06;100.00;53868.09;10323642;28;20274;-80
2023/02/14 07:09:19;;;;;;;0.00;0.00;;;;;;;-145.06;100.00;53896.44;10305237;28;20490;-80
2023/02/14 07:14:20;;;;;;;0.00;0.00;;;;;;;-145.06;100.00;53888.34;10265198;28;20035;-79
2023/02/14 07:19:21;;;;;;;0.00;0.00;;;;;;;-145.06;100.00;53896.44;10304667;28;20042;-79
2023/02/14 07:24:21;;;;;;;0.00;0.00;;;;;;;-145.06;100.00;53864.03;10333686;28;20397;-79
2023/02/14 07:29:21;;;;;;;0.00;0.00;;;;;;;-145.06;100.00;53872.13;10316014;28;20039;-79
2023/02/14 07:34:22;;;;;;;0.00;0.00;;;;;;;-145.06;100.00;53823.53;10333381;28;20034;-78
2023/02/14 07:39:22;;;;;;;0.00;0.00;;;;;;;-145.06;100.00;53898.47;10328191;28;20730;-79
2023/02/14 07:44:23;;;;;;;0.00;0.00;;;;;;;-145.06;100.00;53870.09;10256847;28;20031;-80
2023/02/14 07:49:23;;;;;;;0.00;0.00;;;;;;;-145.06;100.00;53835.69;10284961;28;20034;-82
2023/02/14 07:54:23;;;;;;;0.00;0.00;;;;;;;-145.06;100.00;53864.03;10306851;28;20113;-80
2023/02/14 07:59:23;;;;;;;0.00;0.00;;;;;;;-145.06;100.00;53825.56;10292456;28;20540;-81
2023/02/14 08:04:24;;;;;;;0.00;0.00;;;;;;;-145.06;100.00;53874.16;10285658;28;20023;-82
2023/02/14 08:09:25;;;;;;;0.00;0.00;;;;;;;-145.06;100.00;53823.53;10277945;28;20041;-80
2023/02/14 08:14:25;;;;;;;0.00;0.00;;;;;;;-145.06;100.00;53868.09;10282924;28;20117;-81
2023/02/14 08:19:26;;;;;;;0.00;0.00;;;;;;;-145.06;100.00;53768.84;10303872;28;20540;-81
2023/02/14 08:24:26;;;;;;;0.10;0.10;;;;;;;-145.06;100.00;53793.16;10285931;28;20033;-82
2023/02/14 08:29:26;;;;;;;0.00;0.00;;;;;;;-145.06;100.00;53766.81;10346221;23;20472;-84
2023/02/14 08:34:27;;;;;;;0.00;0.00;;;;;;;-145.06;100.00;53778.97;10313854;28;20030;-85
2023/02/14 08:39:27;;;;;;;0.10;0.10;;;;;;;-145.06;100.00;53746.56;10328650;28;20198;-83
2023/02/14 08:44:27;;;;;;;0.00;0.00;;;;;;;-145.06;100.00;53781.00;10307003;28;20296;-84
2023/02/14 08:49:28;;;;;;;0.10;0.10;;;;;;;-145.06;100.00;53787.06;10309133;28;20057;-84
2023/02/14 08:54:28;;;;;;;0.08;0.08;;;;;;;-145.06;100.00;53770.88;10317480;28;20034;-84
2023/02/14 08:59:28;;;;;;;0.10;0.10;;;;;;;-145.06;100.00;53754.69;10327514;28;20034;-86
2023/02/14 09:04:29;;;;;;;0.00;0.00;;;;;;;-145.06;100.00;53722.28;10317125;28;20031;-84
2023/02/14 09:09:30;;;;;;;0.10;0.10;;;;;;;-145.06;100.00;53774.94;10302849;28;20098;-82
2023/02/14 09:14:35;;;;;;;0.15;0.15;;;;;;;-145.06;100.00;53787.06;10316302;28;20045;-84
2023/02/14 09:19:36;;;;;;;0.10;0.10;;;;;;;-145.06;100.00;53730.38;10316028;28;20038;-83
2023/02/14 09:24:38;;;;;;;0.10;0.10;;;;;;;-145.06;100.00;53789.09;10324447;28;20035;-85
2023/02/14 09:29:39;;;;;;;0.10;0.10;;;;;;;-145.06;100.00;53762.78;10310370;28;20034;-85
2023/02/14 09:34:39;;;;;;;0.10;0.10;;;;;;;-145.06;100.00;53768.84;10326387;28;20034;-86
2023/02/14 09:39:39;;;;;;;0.10;0.10;;;;;;;-145.06;100.00;53787.06;10299466;28;20046;-87
2023/02/14 09:44:50;;;;;;;0.10;0.10;;;;;;;-145.06;100.00;53750.63;10326557;28;20034;-83
2023/02/14 09:49:52;;;;;;;0.00;0.00;;;;;;;-145.06;100.00;53778.97;10298714;28;20086;-83
2023/02/14 09:54:56;;;;;;;0.10;0.10;;;;;;;-145.06;100.00;53801.25;10321094;28;20062;-85
2023/02/14 10:00:01;;;;;;;0.10;0.10;;;;;;;-145.06;100.00;53762.78;10291436;28;20027;-85
2023/02/14 10:05:20;;;;;;;0.08;0.08;;;;;;;-145.06;100.00;53795.19;10291491;28;20031;-84
2023/02/14 10:10:26;;;;;;;0.00;0.00;;;;;;;-145.06;100.00;53776.94;10308553;28;20034;-85
2023/02/14 10:15:34;;;;;;;0.00;0.00;;;;;;;-145.06;100.00;53807.31;10326123;28;20042;-85
2023/02/14 10:20:40;;;;;;;0.10;0.10;;;;;;;-145.06;100.00;53799.22;10290214;28;20074;-84
2023/02/14 10:25:52;;;;;;;0.10;0.10;;;;;;;-145.06;100.00;53813.41;10318304;28;20034;-85
2023/02/14 10:31:33;;;;;;;0.10;0.10;;;;;;;-145.06;100.00;53843.78;10317891;28;20037;-82
2023/02/14 10:36:42;;;;;;;0.10;0.10;;;;;;;-145.06;100.00;53762.78;10249657;28;20478;-85
2023/02/14 10:41:54;;;;;;;0.10;0.10;;;;;;;-145.06;100.00;53823.53;10310581;28;20040;-86
2023/02/14 10:47:52;;;;;;;0.03;0.03;;;;;;;-145.06;100.00;53809.34;10311787;28;20061;-84
2023/02/14 10:53:34;;;;;;;0.03;0.03;;;;;;;-145.06;100.00;53823.53;10223323;29;20113;-82
2023/02/14 10:58:38;;;;;;;0.03;0.03;;;;;;;-145.06;100.00;53819.47;10301959;28;20030;-84
2023/02/14 11:03:50;;;;;;;0.10;0.10;;;;;;;-145.06;100.00;53868.09;10309124;28;20053;-87
2023/02/14 11:08:50;;;;;;;0.00;0.00;;;;;;;-145.06;100.00;53851.88;10295943;28;20043;-83
2023/02/14 11:13:51;;;;;;;0.10;0.10;;;;;;;-145.06;100.00;53831.63;10301308;28;20049;-82
2023/02/14 11:19:08;;;;;;;0.00;0.00;;;;;;;-145.06;100.00;53857.97;10321424;28;20050;-84
2023/02/14 11:24:40;;;;;;;0.00;0.00;;;;;;;-145.06;100.00;53825.56;10322856;28;20044;-83
2023/02/14 11:29:40;;;;;;;0.00;0.00;;;;;;;-145.06;100.00;53827.59;10316280;28;20070;-84
2023/02/14 11:34:46;;;;;;;0.00;0.00;;;;;;;-145.06;100.00;53837.72;10323983;28;20389;-84
2023/02/14 11:39:46;;;;;;;0.10;0.10;;;;;;;-145.06;100.00;53845.81;10315780;28;20054;-82
2023/02/14 11:44:55;;;;;;;0.00;0.00;;;;;;;-145.06;100.00;53819.47;10282409;28;20042;-81
2023/02/14 11:49:59;;;;;;;0.10;0.10;;;;;;;-145.06;100.00;53847.84;10300482;28;20057;-82
2023/02/14 11:55:00;;;;;;;0.08;0.08;;;;;;;-145.06;100.00;53791.13;10302292;28;20462;-85
2023/02/14 12:00:10;;;;;;;0.10;0.10;;;;;;;-145.06;100.00;53868.09;10308028;28;20026;-82
2023/02/14 12:05:19;;;;;;;0.00;0.00;;;;;;;-145.06;100.00;53815.44;10286310;28;20110;-81
2023/02/14 12:10:24;;;;;;;0.00;0.00;;;;;;;-145.06;100.00;53807.31;10294195;28;20034;-81
2023/02/14 12:15:39;;;;;;;0.10;0.10;;;;;;;-145.06;100.00;53829.59;10305949;28;20046;-81
2023/02/14 12:20:55;;;;;;;0.00;0.00;;;;;;;-145.06;100.00;53815.44;10326932;28;20035;-82
2023/02/14 12:26:01;;;;;;;0.00;0.00;;;;;;;-145.06;100.00;53823.53;10301294;28;20045;-82
2023/02/14 12:31:02;;;;;;;0.00;0.00;;;;;;;-145.06;100.00;53807.31;10310056;28;20035;-81
2023/02/14 12:36:14;;;;;;;0.10;0.10;;;;;;;-145.06;100.00;53819.47;10284334;28;20047;-81
2023/02/14 12:41:15;;;;;;;0.10;0.10;;;;;;;-145.06;100.00;53833.66;10298145;28;20031;-82
2023/02/14 12:46:30;;;;;;;0.10;0.10;;;;;;;-145.06;100.00;53821.50;10290706;28;20035;-81
2023/02/14 12:52:14;;;;;;;0.00;0.00;;;;;;;-145.06;100.00;53843.78;10295065;28;20117;-82
2023/02/14 12:57:39;;;;;;;0.10;0.10;;;;;;;-145.06;100.00;53811.38;10294575;28;20416;-80
2023/02/14 13:02:57;;;;;;;0.10;0.10;;;;;;;-145.06;100.00;53776.94;10320832;28;20038;-81
2023/02/14 13:07:57;;;;;;;0.00;0.00;;;;;;;-145.06;100.00;53827.59;10319385;28;20038;-82
2023/02/14 13:13:05;;;;;;;0.10;0.10;;;;;;;-145.06;100.00;53817.47;10293758;28;20046;-81
2023/02/14 13:18:32;;;;;;;0.05;0.05;;;;;;;-145.06;100.00;53874.16;10307865;28;20076;-81
2023/02/14 13:23:39;;;;;;;0.10;0.10;;;;;;;-145.06;100.00;53797.22;10289188;28;20031;-82
2023/02/14 13:28:48;;;;;;;0.10;0.10;;;;;;;-145.06;100.00;53823.53;10292611;28;20064;-82
2023/02/14 13:33:52;;;;;;;0.00;0.00;;;;;;;-145.06;100.00;53815.44;10305416;28;20483;-82
2023/02/14 13:38:56;;;;;;;0.00;0.00;;;;;;;-145.06;100.00;53795.19;10312438;28;20031;-82
2023/02/14 13:44:00;;;;;;;0.10;0.10;;;;;;;-145.06;100.00;53819.47;10310901;28;20031;-82
2023/02/14 13:49:03;;;;;;;0.10;0.10;;;;;;;-145.06;100.00;53783.03;10291086;28;20031;-82
2023/02/14 13:54:34;;;;;;;0.05;0.05;;;;;;;-145.06;100.00;53797.22;10320380;28;20562;-81
2023/02/14 13:59:35;;;;;;;0.00;0.00;;;;;;;-145.06;100.00;53791.13;10311639;28;20046;-82
2023/02/14 14:04:36;;;;;;;0.10;0.10;;;;;;;-145.06;100.00;53837.72;10312108;28;20429;-81
2023/02/14 14:09:39;;;;;;;0.10;0.10;;;;;;;-145.06;100.00;53841.75;10301345;28;20026;-82
2023/02/14 14:14:40;;;;;;;0.00;0.00;;;;;;;-145.06;100.00;53809.34;10299787;28;20042;-81
2023/02/14 14:19:41;;;;;;;0.10;0.10;;;;;;;-145.06;100.00;53795.19;10304085;28;20585;-81
2023/02/14 14:24:53;;;;;;;0.00;0.00;;;;;;;-145.06;100.00;53785.06;10320120;28;20023;-82
2023/02/14 14:29:57;;;;;;;0.10;0.10;;;;;;;-145.06;100.00;53785.06;10348087;23;20416;-82
2023/02/14 14:35:11;;;;;;;0.00;0.00;;;;;;;-145.06;100.00;53807.31;10355088;28;20031;-80
2023/02/14 14:40:27;;;;;;;0.00;0.00;;;;;;;-145.06;100.00;53793.16;10357256;28;20038;-80
2023/02/14 14:45:30;;;;;;;0.00;0.00;;;;;;;-145.06;100.00;53789.09;10343111;28;20045;-81
2023/02/14 14:50:34;;;;;;;0.10;0.10;;;;;;;-145.06;100.00;53807.31;10334595;28;20033;-81
2023/02/14 14:55:37;;;;;;;0.10;0.10;;;;;;;-145.06;100.00;53839.72;10329136;28;20038;-81
2023/02/14 15:00:41;;;;;;;0.10;0.10;;;;;;;-145.06;100.00;53795.19;10341169;28;20084;-81
2023/02/14 15:05:44;;;;;;;0.10;0.10;;;;;;;-145.06;100.00;53815.44;10335427;28;20041;-81
2023/02/14 15:13:48;;;;;;;0.00;0.00;;;;;;;-145.06;100.00;53803.28;10328748;28;20453;-81
2023/02/14 15:16:45;;;;;;;0.08;0.08;;;;;;;-145.06;100.00;53817.47;10342808;28;20134;-81
2023/02/14 15:21:46;;;;;;;0.00;0.00;;;;;;;-145.06;100.00;53811.38;10340528;28;20022;-81
2023/02/14 15:26:47;;;;;;;0.00;0.00;;;;;;;-145.06;100.00;53797.22;10355391;28;20042;-81
2023/02/14 15:31:48;;;;;;;0.10;0.10;;;;;;;-145.06;100.00;53821.50;10338674;28;20181;-81
2023/02/14 15:36:52;;;;;;;0.00;0.00;;;;;;;-145.06;100.00;53827.59;10347789;28;20066;-81
2023/02/14 15:41:54;;;;;;;0.00;0.00;;;;;;;-145.06;100.00;53801.25;10331054;28;20033;-81
2023/02/14 15:46:59;;;;;;;0.00;0.00;;;;;;;-145.06;100.00;53813.41;10332681;28;20029;-81
2023/02/14 15:52:02;;;;;;;0.10;0.10;;;;;;;-145.06;100.00;53801.25;10334558;28;20026;-81
2023/02/14 15:57:04;;;;;;;0.00;0.00;;;;;;;-145.06;100.00;53815.44;10348097;28;20034;-81
2023/02/14 16:02:36;;;;;;;0.00;0.00;;;;;;;-145.06;100.00;53823.53;10350880;28;20124;-81
2023/02/14 16:07:36;;;;;;;0.10;0.10;;;;;;;-145.06;100.00;53866.06;10346103;28;20501;-81
2023/02/14 16:12:39;;;;;;;0.00;0.00;;;;;;;-145.06;100.00;53819.47;10342470;28;20030;-81
2023/02/14 16:17:40;;;;;;;0.00;0.00;;;;;;;-145.06;100.00;53807.31;10335787;28;20396;-81
2023/02/14 16:22:41;;;;;;;0.00;0.00;;;;;;;-145.06;100.00;53831.63;10342736;28;20029;-81
2023/02/14 16:27:41;;;;;;;0.10;0.10;;;;;;;-145.06;100.00;53847.84;10351587;28;20045;-81
2023/02/14 16:32:42;;;;;;;0.00;0.00;;;;;;;-145.06;100.00;53811.38;10344169;28;20040;-81
2023/02/14 16:37:46;;;;;;;0.00;0.00;;;;;;;-145.06;100.00;53874.16;10341538;28;20173;-81
2023/02/14 16:42:46;;;;;;;0.10;0.10;;;;;;;-145.06;100.00;53853.91;10363896;28;20377;-80
2023/02/14 16:47:47;;;;;;;0.00;0.00;;;;;;;-145.06;100.00;53851.88;10351386;28;20109;-81
2023/02/14 16:52:50;;;;;;;0.00;0.00;;;;;;;-145.06;100.00;53851.88;10334732;28;20429;-81
2023/02/14 16:57:51;;;;;;;0.10;0.10;;;;;;;-145.06;100.00;53817.47;10359619;28;20049;-81
2023/02/14 17:03:03;;;;;;;0.10;0.10;;;;;;;-145.06;100.00;53815.44;10350324;28;20457;-81
2023/02/14 17:08:06;;;;;;;0.10;0.10;;;;;;;-145.06;100.00;53827.59;10369579;28;20029;-81
2023/02/14 17:13:06;;;;;;;0.10;0.10;;;;;;;-145.06;100.00;53827.59;10368534;28;20512;-81
2023/02/14 17:18:12;;;;;;;0.10;0.10;;;;;;;-145.06;100.00;53815.44;10341703;28;20034;-81
2023/02/14 17:23:12;;;;;;;0.00;0.00;;;;;;;-145.06;100.00;53880.22;10333666;28;20026;-79
2023/02/14 17:28:12;;;;;;;0.00;0.00;;;;;;;-145.06;100.00;53864.03;10347063;28;20121;-80
2023/02/14 17:33:13;;;;;;;0.00;0.00;;;;;;;-145.06;100.00;53821.50;10332437;28;20085;-79
2023/02/14 17:38:13;;;;;;;0.00;0.00;;;;;;;-145.06;100.00;53841.75;10343787;28;20033;-80
2023/02/14 17:43:13;;;;;;;0.03;0.03;;;;;;;-145.06;100.00;53811.38;10353837;28;20482;-80
2023/02/14 17:48:14;;;;;;;0.00;0.00;;;;;;;-145.06;100.00;53851.88;10342705;28;20110;-80
2023/02/14 17:53:16;;;;;;;0.00;0.00;;;;;;;-145.06;100.00;53843.78;10354252;28;20022;-80
2023/02/14 17:58:16;;;;;;;0.00;0.00;;;;;;;-145.06;100.00;53837.72;10344413;28;20105;-80
2023/02/14 18:03:17;;;;;;;0.00;0.00;;;;;;;-145.06;100.00;53825.56;10357420;28;20101;-80
2023/02/14 18:08:19;;;;;;;0.00;0.00;;;;;;;-145.06;100.00;53821.50;10343296;28;20089;-79
2023/02/14 18:13:22;;;;;;;0.00;0.00;;;;;;;-145.06;100.00;53855.94;10342776;28;20021;-80
2023/02/14 18:18:23;;;;;;;0.05;0.05;;;;;;;-145.06;100.00;53845.81;10358542;28;20037;-80
2023/02/14 18:23:24;;;;;;;0.00;0.00;;;;;;;-145.06;100.00;53839.72;10335564;28;20568;-81
2023/02/14 18:28:25;;;;;;;0.00;0.00;;;;;;;-145.06;100.00;53876.19;10368273;28;20042;-81
2023/02/14 18:33:26;;;;;;;0.00;0.00;;;;;;;-145.06;100.00;53831.63;10349760;28;20042;-80
2023/02/14 18:38:26;;;;;;;0.00;0.00;;;;;;;-145.06;100.00;53866.06;10356814;28;20033;-80
2023/02/14 18:43:26;;;;;;;0.00;0.00;;;;;;;-145.06;100.00;53821.50;10348102;28;20696;-80
2023/02/14 18:48:26;;;;;;;0.00;0.00;;;;;;;-145.06;100.00;53884.28;10341750;28;20760;-80
2023/02/14 18:53:27;;;;;;;0.00;0.00;;;;;;;-145.06;100.00;53868.09;10357976;28;20370;-80
2023/02/14 18:58:27;;;;;;;0.00;0.00;;;;;;;-145.06;100.00;53874.16;10342694;28;20114;-80
2023/02/14 19:03:27;;;;;;;0.00;0.00;;;;;;;-145.06;100.00;53853.91;10331668;28;20080;-81
2023/02/14 19:08:33;;;;;;;0.00;0.00;;;;;;;-145.06;100.00;53876.19;10334259;28;20034;-79
2023/02/14 19:13:33;;;;;;;0.00;0.00;;;;;;;-145.06;100.00;53841.75;10355628;28;20031;-79
2023/02/14 19:18:33;;;;;;;0.00;0.00;;;;;;;-145.06;100.00;53819.47;10360193;28;20042;-81
2023/02/14 19:23:33;;;;;;;0.00;0.00;;;;;;;-145.06;100.00;53892.38;10337333;28;20029;-82
2023/02/14 19:28:34;;;;;;;0.00;0.00;;;;;;;-145.06;100.00;53884.28;10358576;28;20493;-82
2023/02/14 19:33:40;;;;;;;0.00;0.00;;;;;;;-145.06;100.00;53872.13;10340735;28;20037;-81
2023/02/14 19:38:43;;;;;;;0.00;0.00;;;;;;;-145.06;100.00;53843.78;10339731;28;20026;-81
2023/02/14 19:43:44;;;;;;;0.00;0.00;;;;;;;-145.06;100.00;53847.84;10350531;28;20041;-82
2023/02/14 19:48:45;;;;;;;0.00;0.00;;;;;;;-145.06;100.00;53833.66;10349270;28;20090;-82
2023/02/14 19:53:46;;;;;;;0.00;0.00;;;;;;;-145.06;100.00;53872.13;10351460;28;20493;-82
2023/02/14 19:58:48;;;;;;;0.10;0.10;;;;;;;-145.06;100.00;53859.97;10350734;28;20036;-82
2023/02/14 20:03:49;;;;;;;0.00;0.00;;;;;;;-145.06;100.00;53839.72;10338466;28;20045;-82
2023/02/14 20:08:49;;;;;;;0.00;0.00;;;;;;;-145.06;100.00;53888.34;10346598;28;20036;-81
2023/02/14 20:13:51;;;;;;;0.00;0.00;;;;;;;-145.06;100.00;53843.78;10335181;28;20040;-82
2023/02/14 20:18:52;;;;;;;0.00;0.00;;;;;;;-145.06;100.00;53876.19;10332522;28;20030;-82
2023/02/14 20:24:03;;;;;;;0.00;0.00;;;;;;;-145.06;100.00;53849.84;10336614;28;20030;-82
2023/02/14 20:29:05;;;;;;;0.00;0.00;;;;;;;-145.06;100.00;53829.59;10357225;28;20084;-83
2023/02/14 20:34:06;;;;;;;0.00;0.00;;;;;;;-145.06;100.00;53884.28;10347059;28;20477;-83
2023/02/14 20:39:08;;;;;;;0.00;0.00;;;;;;;-145.06;100.00;53872.13;10326287;28;20063;-83
2023/02/14 20:44:14;;;;;;;0.00;0.00;;;;;;;-145.06;100.00;53866.06;10351506;23;20497;-81
2023/02/14 20:49:15;;;;;;;0.00;0.00;;;;;;;-145.06;100.00;53837.72;10334802;28;20026;-81
2023/02/14 20:54:19;;;;;;;0.00;0.00;;;;;;;-145.06;100.00;53892.38;10332648;28;20497;-81
2023/02/14 20:59:26;;;;;;;0.00;0.00;;;;;;;-145.06;100.00;53831.63;10325018;28;20038;-79
2023/02/14 21:04:27;;;;;;;0.00;0.00;;;;;;;-145.06;100.00;53908.59;10337853;28;20034;-79
2023/02/14 21:09:27;;;;;;;0.00;0.00;;;;;;;-145.06;100.00;53857.97;10334614;28;20052;-81
2023/02/14 21:14:27;;;;;;;0.00;0.00;;;;;;;-145.06;100.00;53853.91;10335219;28;20038;-82
2023/02/14 21:19:28;;;;;;;0.00;0.00;;;;;;;-145.06;100.00;53839.72;10341307;28;20034;-82
2023/02/14 21:24:28;;;;;;;0.00;0.00;;;;;;;-145.06;100.00;53855.94;10341156;28;20293;-82
2023/02/14 21:29:28;;;;;;;0.00;0.00;;;;;;;-145.06;100.00;53876.19;10341228;28;20609;-82
2023/02/14 21:34:28;;;;;;;0.00;0.00;;;;;;;-145.06;100.00;53882.25;10346221;28;20499;-81
2023/02/14 21:39:34;;;;;;;0.00;0.00;;;;;;;-145.06;100.00;53866.06;10340600;28;20288;-81
2023/02/14 21:55:12;;;;;;;0.00;0.00;;;;;;;-145.06;100.00;53849.84;10339980;28;20038;-81
2023/02/14 22:00:13;;;;;;;0.03;0.03;;;;;;;-145.06;100.00;53851.88;10343936;28;20030;-81
2023/02/14 22:05:14;;;;;;;0.00;0.00;;;;;;;-145.06;100.00;53853.91;10341641;28;20290;-80
2023/02/14 22:10:14;;;;;;;0.00;0.00;;;;;;;-145.06;100.00;53890.38;10344766;28;20033;-80
2023/02/14 22:15:14;;;;;;;0.00;0.00;;;;;;;-145.06;100.00;53853.91;10349115;28;20037;-81
2023/02/14 22:20:15;;;;;;;0.00;0.00;;;;;;;-145.06;100.00;53882.25;10348394;28;20057;-80
2023/02/14 22:25:15;;;;;;;0.65;0.45;;;;;;;-145.06;100.00;53904.53;10345608;28;20095;-80
2023/02/14 22:30:16;;;;;;;0.03;0.03;;;;;;;-145.06;100.00;53898.47;10350092;28;20026;-81
2023/02/14 22:35:16;;;;;;;0.00;0.00;;;;;;;-145.06;100.00;53835.69;10348336;28;20037;-80
2023/02/14 22:40:17;;;;;;;0.00;0.00;;;;;;;-145.06;100.00;53878.22;10349437;28;20035;-80
2023/02/14 22:45:17;;;;;;;0.00;0.00;;;;;;;-145.06;100.00;53855.94;10366085;28;20030;-80
2023/02/14 22:50:17;;;;;;;0.00;0.00;;;;;;;-145.06;100.00;53898.47;10343284;28;20393;-81
2023/02/14 22:55:18;;;;;;;0.00;0.00;;;;;;;-145.06;100.00;53888.34;10364978;28;20257;-80
2023/02/14 23:00:18;;;;;;;0.00;0.00;;;;;;;-145.06;100.00;53878.22;10350365;28;20062;-81
2023/02/14 23:05:19;;;;;;;0.10;0.10;;;;;;;-145.06;100.00;53864.03;10344764;28;20485;-80
2023/02/14 23:10:19;;;;;;;0.00;0.00;;;;;;;-145.06;100.00;53876.19;10348708;28;20061;-80
2023/02/14 23:26:01;;;;;;;0.00;0.00;;;;;;;-145.06;100.00;53866.06;10322133;28;20026;-80